createdAt,value
2023-04-03T00:01:06.190Z,2.20
2023-04-03T00:03:33.295Z,2.20
2023-04-03T00:06:01.180Z,2.20
2023-04-03T00:08:28.110Z,2.20
2023-04-03T00:10:55.050Z,2.20
2023-04-03T00:13:22.037Z,2.30
2023-04-03T00:15:49.085Z,2.30
2023-04-03T00:18:16.260Z,2.20
2023-04-03T00:20:43.172Z,2.20
2023-04-03T00:23:10.383Z,2.30
2023-04-03T00:25:37.707Z,2.20
2023-04-03T00:28:05.991Z,2.20
2023-04-03T00:30:33.662Z,2.20
2023-04-03T00:33:01.851Z,2.20
2023-04-03T00:35:29.588Z,2.20
2023-04-03T00:37:57.313Z,2.20
2023-04-03T00:40:26.534Z,2.20
2023-04-03T00:42:57.965Z,2.20
2023-04-03T00:45:27.397Z,2.20
2023-04-03T00:47:54.630Z,2.20
2023-04-03T00:50:22.143Z,2.20
2023-04-03T00:52:50.156Z,2.20
2023-04-03T00:55:17.746Z,2.20
2023-04-03T00:57:46.761Z,2.20
2023-04-03T01:00:17.327Z,2.20
2023-04-03T01:02:45.974Z,2.20
2023-04-03T01:05:15.458Z,2.20
2023-04-03T01:07:42.480Z,2.20
2023-04-03T01:10:14.942Z,2.20
2023-04-03T01:12:46.808Z,2.10
2023-04-03T01:15:21.690Z,2.10
2023-04-03T01:17:52.233Z,2.10
2023-04-03T01:20:21.861Z,2.00
2023-04-03T01:23:13.616Z,1.90
2023-04-03T01:25:52.718Z,1.90
2023-04-03T01:28:30.203Z,1.90
2023-04-03T01:31:06.453Z,1.80
2023-04-03T01:33:33.690Z,1.80
2023-04-03T01:36:01.448Z,1.80
2023-04-03T01:38:28.541Z,1.80
2023-04-03T01:40:55.722Z,1.80
2023-04-03T01:43:22.661Z,1.90
2023-04-03T01:45:51.291Z,1.90
2023-04-03T01:48:18.317Z,1.90
2023-04-03T01:50:45.280Z,1.90
2023-04-03T01:53:12.233Z,1.90
2023-04-03T01:55:39.201Z,1.90
2023-04-03T01:58:06.177Z,1.90
2023-04-03T02:00:33.198Z,1.90
2023-04-03T02:03:00.506Z,1.90
2023-04-03T02:05:27.499Z,1.90
2023-04-03T02:07:54.553Z,1.90
2023-04-03T02:10:21.476Z,1.90
2023-04-03T02:12:48.469Z,1.90
2023-04-03T02:15:15.456Z,1.80
2023-04-03T02:17:42.342Z,1.80
2023-04-03T02:20:10.424Z,1.80
2023-04-03T02:22:37.625Z,1.90
2023-04-03T02:25:05.207Z,1.90
2023-04-03T02:27:32.895Z,1.90
2023-04-03T02:29:59.797Z,2.00
2023-04-03T02:32:26.836Z,1.90
2023-04-03T02:34:53.877Z,1.90
2023-04-03T02:37:20.829Z,1.90
2023-04-03T02:39:47.836Z,1.90
2023-04-03T02:42:15.567Z,2.00
2023-04-03T02:44:42.693Z,2.00
2023-04-03T02:47:09.646Z,2.00
2023-04-03T02:49:36.633Z,2.00
2023-04-03T02:52:03.625Z,2.10
2023-04-03T02:54:31.723Z,2.10
2023-04-03T02:56:59.459Z,2.10
2023-04-03T02:59:26.442Z,2.00
2023-04-03T03:01:53.886Z,2.10
2023-04-03T03:04:20.958Z,2.10
2023-04-03T03:06:47.948Z,2.10
2023-04-03T03:09:15.752Z,2.10
2023-04-03T03:11:42.708Z,2.10
2023-04-03T03:14:09.707Z,2.10
2023-04-03T03:16:36.718Z,2.10
2023-04-03T03:19:03.861Z,2.10
2023-04-03T03:21:30.823Z,2.10
2023-04-03T03:23:57.729Z,2.10
2023-04-03T03:26:24.853Z,2.10
2023-04-03T03:28:51.908Z,2.10
2023-04-03T03:31:18.831Z,2.00
2023-04-03T03:33:45.805Z,2.00
2023-04-03T03:36:12.901Z,2.00
2023-04-03T03:38:39.890Z,2.00
2023-04-03T03:41:07.153Z,2.10
2023-04-03T03:43:34.072Z,2.10
2023-04-03T03:46:01.164Z,2.10
2023-04-03T03:48:28.109Z,2.10
2023-04-03T03:50:55.020Z,2.10
2023-04-03T03:53:22.009Z,2.00
2023-04-03T03:55:49.179Z,2.00
2023-04-03T03:58:16.274Z,2.10
2023-04-03T04:00:43.197Z,2.10
2023-04-03T04:03:10.331Z,2.10
2023-04-03T04:05:37.511Z,2.20
2023-04-03T04:08:04.575Z,2.10
2023-04-03T04:10:31.519Z,2.00
2023-04-03T04:12:58.936Z,2.00
2023-04-03T04:15:26.759Z,1.90
2023-04-03T04:17:54.483Z,1.90
2023-04-03T04:20:21.743Z,1.90
2023-04-03T04:22:48.676Z,1.80
2023-04-03T04:25:15.757Z,1.80
2023-04-03T04:27:42.770Z,1.90
2023-04-03T04:30:10.916Z,1.80
2023-04-03T04:32:38.319Z,1.90
2023-04-03T04:35:06.101Z,1.90
2023-04-03T04:37:33.289Z,1.90
2023-04-03T04:40:00.287Z,1.90
2023-04-03T04:42:27.300Z,1.90
2023-04-03T04:44:54.187Z,1.90
2023-04-03T04:47:21.311Z,1.90
2023-04-03T04:49:48.614Z,1.90
2023-04-03T04:52:15.797Z,1.90
2023-04-03T04:54:42.779Z,1.90
2023-04-03T04:57:09.796Z,1.90
2023-04-03T04:59:36.750Z,1.90
2023-04-03T05:02:03.878Z,1.90
2023-04-03T05:04:31.003Z,1.90
2023-04-03T05:06:57.950Z,1.90
2023-04-03T05:09:24.859Z,1.90
2023-04-03T05:11:51.882Z,1.90
2023-04-03T05:14:18.896Z,2.00
2023-04-03T05:16:45.885Z,2.00
2023-04-03T05:19:12.824Z,1.90
2023-04-03T05:21:39.730Z,1.90
2023-04-03T05:24:10.159Z,2.00
2023-04-03T05:26:37.142Z,1.90
2023-04-03T05:29:04.521Z,2.00
2023-04-03T05:31:31.593Z,2.00
2023-04-03T05:33:59.044Z,2.10
2023-04-03T05:36:26.635Z,2.00
2023-04-03T05:38:54.468Z,2.10
2023-04-03T05:41:24.622Z,2.20
2023-04-03T05:43:51.754Z,2.30
2023-04-03T05:46:21.416Z,2.30
2023-04-03T05:48:48.723Z,2.30
2023-04-03T05:51:19.070Z,2.30
2023-04-03T05:53:48.409Z,2.30
2023-04-03T05:56:15.542Z,2.20
2023-04-03T05:58:42.504Z,2.10
2023-04-03T06:01:09.541Z,2.00
2023-04-03T06:03:38.630Z,2.00
2023-04-03T06:06:07.093Z,1.90
2023-04-03T06:08:34.802Z,1.90
2023-04-03T06:11:03.298Z,2.10
2023-04-03T06:13:30.584Z,2.30
2023-04-03T06:15:58.273Z,2.40
2023-04-03T06:18:25.272Z,2.30
2023-04-03T06:20:52.196Z,2.20
2023-04-03T06:23:19.362Z,2.20
2023-04-03T06:25:46.272Z,2.20
2023-04-03T06:28:13.384Z,2.20
2023-04-03T06:30:40.647Z,2.30
2023-04-03T06:33:07.815Z,2.60
2023-04-03T06:35:36.156Z,2.80
2023-04-03T06:38:05.179Z,2.90
2023-04-03T06:40:32.336Z,2.90
2023-04-03T06:42:59.385Z,3.10
2023-04-03T06:45:26.727Z,3.00
2023-04-03T06:47:53.752Z,3.10
2023-04-03T06:50:20.915Z,3.30
2023-04-03T06:52:47.915Z,3.50
2023-04-03T06:55:14.886Z,3.20
2023-04-03T06:57:42.059Z,3.00
2023-04-03T07:00:10.999Z,2.90
2023-04-03T07:02:38.239Z,3.10
2023-04-03T07:05:05.685Z,2.80
2023-04-03T07:07:34.153Z,2.70
2023-04-03T07:10:01.455Z,2.70
2023-04-03T07:12:28.524Z,2.70
2023-04-03T07:14:55.912Z,2.80
2023-04-03T07:17:22.851Z,2.80
2023-04-03T07:19:49.969Z,2.80
2023-04-03T07:22:16.990Z,2.70
2023-04-03T07:24:44.083Z,2.70
2023-04-03T07:27:11.820Z,2.80
2023-04-03T07:29:38.823Z,2.80
2023-04-03T07:32:06.802Z,2.80
2023-04-03T07:34:33.970Z,3.00
2023-04-03T07:37:01.243Z,3.20
2023-04-03T07:39:29.039Z,3.50
2023-04-03T07:41:58.935Z,3.30
2023-04-03T07:44:26.394Z,3.50
2023-04-03T07:46:53.384Z,3.50
2023-04-03T07:49:20.523Z,3.40
2023-04-03T07:51:47.801Z,3.30
2023-04-03T07:54:14.782Z,3.20
2023-04-03T07:56:43.785Z,3.10
2023-04-03T07:59:12.351Z,3.20
2023-04-03T08:01:39.443Z,3.20
2023-04-03T08:04:07.961Z,3.30
2023-04-03T08:06:45.579Z,3.30
2023-04-03T08:09:15.484Z,3.40
2023-04-03T08:11:42.739Z,3.30
2023-04-03T08:14:12.095Z,3.40
2023-04-03T08:16:39.287Z,3.30
2023-04-03T08:19:09.727Z,3.60
2023-04-03T08:21:42.646Z,3.70
2023-04-03T08:24:10.219Z,3.70
2023-04-03T08:26:37.452Z,3.30
2023-04-03T08:29:04.649Z,3.30
2023-04-03T08:31:32.270Z,3.40
2023-04-03T08:33:59.280Z,3.50
2023-04-03T08:36:29.126Z,3.60
2023-04-03T08:38:56.783Z,4.00
2023-04-03T08:41:43.652Z,4.20
2023-04-03T08:44:25.157Z,4.50
2023-04-03T08:47:03.374Z,4.20
2023-04-03T08:49:38.838Z,4.30
2023-04-03T08:52:12.311Z,3.80
2023-04-03T08:54:48.958Z,3.60
2023-04-03T08:57:15.910Z,3.80
2023-04-03T08:59:42.996Z,3.60
2023-04-03T09:02:42.763Z,3.50
2023-04-03T09:05:18.399Z,3.60
2023-04-03T09:07:50.064Z,3.70
2023-04-03T09:10:27.585Z,3.90
2023-04-03T09:13:08.335Z,3.70
2023-04-03T09:15:38.980Z,3.70
2023-04-03T09:18:24.862Z,3.90
2023-04-03T09:20:58.600Z,4.00
2023-04-03T09:23:40.641Z,4.40
2023-04-03T09:26:24.274Z,4.60
2023-04-03T09:28:51.606Z,4.50
2023-04-03T09:31:21.559Z,4.50
2023-04-03T09:33:52.547Z,4.30
2023-04-03T09:36:59.204Z,4.50
2023-04-03T09:39:29.376Z,4.60
2023-04-03T09:42:01.195Z,4.70
2023-04-03T09:44:37.108Z,4.50
2023-04-03T09:47:26.984Z,4.20
2023-04-03T09:50:16.825Z,4.30
2023-04-03T09:52:46.548Z,4.20
2023-04-03T09:55:28.277Z,4.40
2023-04-03T09:58:02.862Z,4.50
2023-04-03T10:00:33.391Z,4.60
2023-04-03T10:03:01.012Z,4.80
2023-04-03T10:05:28.035Z,4.70
2023-04-03T10:10:36.256Z,3.80
2023-04-03T10:13:08.172Z,3.80
2023-04-03T10:15:43.971Z,3.90
2023-04-03T10:18:24.752Z,3.90
2023-04-03T10:20:53.722Z,3.70
2023-04-03T10:23:32.614Z,3.60
2023-04-03T10:26:32.553Z,3.60
2023-04-03T10:29:32.403Z,3.80
2023-04-03T10:32:41.645Z,4.10
2023-04-03T10:35:25.222Z,4.40
2023-04-03T10:38:01.411Z,4.20
2023-04-03T10:41:02.303Z,3.90
2023-04-03T10:43:47.830Z,4.00
2023-04-03T10:46:36.073Z,4.30
2023-04-03T10:49:11.290Z,4.30
2023-04-03T10:52:06.108Z,4.20
2023-04-03T10:54:42.620Z,4.30
2023-04-03T10:57:13.470Z,4.50
2023-04-03T10:59:55.785Z,4.30
2023-04-03T11:02:31.105Z,4.00
2023-04-03T11:05:10.461Z,4.20
2023-04-03T11:07:44.410Z,4.20
2023-04-03T11:10:35.396Z,4.30
2023-04-03T11:13:30.923Z,4.60
2023-04-03T11:15:59.709Z,4.50
2023-04-03T11:18:42.322Z,4.30
2023-04-03T11:21:17.449Z,4.50
2023-04-03T11:23:49.999Z,4.50
2023-04-03T11:26:22.090Z,4.60
2023-04-03T11:28:55.259Z,4.60
2023-04-03T11:31:38.368Z,4.70
2023-04-03T11:34:35.574Z,4.90
2023-04-03T11:37:05.180Z,4.50
2023-04-03T11:39:39.607Z,4.40
2023-04-03T11:42:25.314Z,4.50
2023-04-03T11:44:52.710Z,4.90
2023-04-03T11:47:51.885Z,4.60
2023-04-03T11:50:43.268Z,4.50
2023-04-03T11:53:13.190Z,4.30
2023-04-03T11:55:49.337Z,4.20
2023-04-03T11:58:19.055Z,4.10
2023-04-03T12:00:50.265Z,4.10
2023-04-03T12:03:30.220Z,4.40
2023-04-03T12:06:12.111Z,4.50
2023-04-03T12:08:45.577Z,4.30
2023-04-03T12:11:15.713Z,4.80
2023-04-03T12:13:57.710Z,5.00
2023-04-03T12:16:27.389Z,5.20
2023-04-03T12:18:54.422Z,4.60
2023-04-03T12:21:42.945Z,4.50
2023-04-03T12:24:09.867Z,4.20
2023-04-03T12:26:48.722Z,4.30
2023-04-03T12:29:24.805Z,4.20
2023-04-03T12:32:16.373Z,4.50
2023-04-03T12:34:46.197Z,4.80
2023-04-03T12:37:43.992Z,4.70
2023-04-03T12:40:31.162Z,4.50
2023-04-03T12:43:30.806Z,4.40
2023-04-03T12:46:09.903Z,4.40
2023-04-03T12:48:52.447Z,4.30
2023-04-03T12:51:44.180Z,4.40
2023-04-03T12:54:14.298Z,4.40
2023-04-03T12:56:41.437Z,4.20
2023-04-03T12:59:26.390Z,4.10
2023-04-03T13:02:01.802Z,4.20
2023-04-03T13:04:30.220Z,4.30
2023-04-03T13:06:57.337Z,4.50
2023-04-03T13:09:28.904Z,4.60
2023-04-03T13:12:16.561Z,4.60
2023-04-03T13:14:55.386Z,4.70
2023-04-03T13:17:25.734Z,5.00
2023-04-03T13:19:53.418Z,4.50
2023-04-03T13:22:40.629Z,4.20
2023-04-03T13:25:10.996Z,4.00
2023-04-03T13:27:41.204Z,3.60
2023-04-03T13:30:20.883Z,3.60
2023-04-03T13:32:48.063Z,4.10
2023-04-03T13:35:36.206Z,4.10
2023-04-03T13:38:26.629Z,4.30
2023-04-03T13:40:56.596Z,4.10
2023-04-03T13:43:28.050Z,4.20
2023-04-03T13:46:01.381Z,4.30
2023-04-03T13:48:36.068Z,4.00
2023-04-03T13:51:27.722Z,4.10
2023-04-03T13:54:14.412Z,4.20
2023-04-03T13:56:43.190Z,4.30
2023-04-03T13:59:13.257Z,4.50
2023-04-03T14:01:51.996Z,4.20
2023-04-03T14:04:28.953Z,4.30
2023-04-03T14:06:56.486Z,4.20
2023-04-03T14:09:24.869Z,4.40
2023-04-03T14:11:55.334Z,4.30
2023-04-03T14:14:31.762Z,4.20
2023-04-03T14:17:01.764Z,4.30
2023-04-03T14:19:31.604Z,4.10
2023-04-03T14:22:00.111Z,3.80
2023-04-03T14:24:28.377Z,3.60
2023-04-03T14:26:56.609Z,3.90
2023-04-03T14:29:24.446Z,4.10
2023-04-03T14:31:57.845Z,4.20
2023-04-03T14:34:31.293Z,4.50
2023-04-03T14:36:58.317Z,4.30
2023-04-03T14:39:25.997Z,4.20
2023-04-03T14:41:52.933Z,4.10
2023-04-03T14:44:20.084Z,3.90
2023-04-03T14:46:56.191Z,3.90
2023-04-03T14:49:29.165Z,3.90
2023-04-03T14:51:57.422Z,3.90
2023-04-03T14:54:29.120Z,3.70
2023-04-03T14:56:58.547Z,3.70
2023-04-03T14:59:26.523Z,3.90
2023-04-03T15:01:53.604Z,4.00
2023-04-03T15:04:22.164Z,4.10
2023-04-03T15:06:50.384Z,4.00
2023-04-03T15:09:23.883Z,3.80
2023-04-03T15:11:52.645Z,3.50
2023-04-03T15:14:29.979Z,3.30
2023-04-03T15:17:07.971Z,3.30
2023-04-03T15:19:39.422Z,3.40
2023-04-03T15:22:06.880Z,3.60
2023-04-03T15:24:33.929Z,4.30
2023-04-03T15:27:02.039Z,4.70
2023-04-03T15:29:29.173Z,4.40
2023-04-03T15:31:56.888Z,4.10
2023-04-03T15:34:23.917Z,3.80
2023-04-03T15:36:54.026Z,3.50
2023-04-03T15:39:21.950Z,3.40
2023-04-03T15:41:49.185Z,3.30
2023-04-03T15:44:18.805Z,3.20
2023-04-03T15:46:47.320Z,3.10
2023-04-03T15:49:14.601Z,3.20
2023-04-03T15:51:42.025Z,3.10
2023-04-03T15:54:09.020Z,3.20
2023-04-03T15:56:36.068Z,3.30
2023-04-03T15:59:03.433Z,3.10
2023-04-03T16:01:30.656Z,3.00
2023-04-03T16:03:57.876Z,2.90
2023-04-03T16:06:26.330Z,2.80
2023-04-03T16:08:58.398Z,2.80
2023-04-03T16:11:28.102Z,2.80
2023-04-03T16:13:56.365Z,2.70
2023-04-03T16:16:27.013Z,2.80
2023-04-03T16:18:56.406Z,2.80
2023-04-03T16:21:24.437Z,2.80
2023-04-03T16:23:51.933Z,2.90
2023-04-03T16:26:19.044Z,2.80
2023-04-03T16:28:46.164Z,2.80
2023-04-03T16:31:13.206Z,2.70
2023-04-03T16:33:40.592Z,2.70
2023-04-03T16:36:08.006Z,2.70
2023-04-03T16:38:35.091Z,2.60
2023-04-03T16:41:05.496Z,2.50
2023-04-03T16:43:33.683Z,2.60
2023-04-03T16:46:03.125Z,2.50
2023-04-03T16:48:31.195Z,2.50
2023-04-03T16:50:58.371Z,2.50
2023-04-03T16:53:26.364Z,2.40
2023-04-03T16:55:54.243Z,2.40
2023-04-03T16:58:23.420Z,2.30
2023-04-03T17:00:51.259Z,2.20
2023-04-03T17:03:18.372Z,2.20
2023-04-03T17:05:48.566Z,2.20
2023-04-03T17:08:17.426Z,2.20
2023-04-03T17:10:44.406Z,2.20
2023-04-03T17:13:11.636Z,2.20
2023-04-03T17:15:39.064Z,2.10
2023-04-03T17:18:06.294Z,2.10
2023-04-03T17:20:34.898Z,2.00
2023-04-03T17:23:01.996Z,2.00
2023-04-03T17:25:29.180Z,2.00
2023-04-03T17:27:56.976Z,2.00
2023-04-03T17:30:24.337Z,2.00
2023-04-03T17:32:51.366Z,2.00
2023-04-03T17:35:18.499Z,2.00
2023-04-03T17:37:45.665Z,2.00
2023-04-03T17:40:14.494Z,1.90
2023-04-03T17:42:41.662Z,1.90
2023-04-03T17:45:09.091Z,1.90
2023-04-03T17:47:36.189Z,1.90
2023-04-03T17:50:03.196Z,1.90
2023-04-03T17:52:31.987Z,1.80
2023-04-03T17:54:58.950Z,1.90
2023-04-03T17:57:25.891Z,1.90
2023-04-03T17:59:54.200Z,1.90
2023-04-03T18:02:21.275Z,1.90
2023-04-03T18:04:48.263Z,1.90
2023-04-03T18:07:15.209Z,1.90
2023-04-03T18:09:42.338Z,1.80
2023-04-03T18:12:10.532Z,1.90
2023-04-03T18:14:39.490Z,1.90
2023-04-03T18:17:08.387Z,1.90
2023-04-03T18:19:35.634Z,1.90
2023-04-03T18:22:06.004Z,1.90
2023-04-03T18:24:34.417Z,1.90
2023-04-03T18:27:07.496Z,1.90
2023-04-03T18:29:36.872Z,1.80
2023-04-03T18:32:04.697Z,1.80
2023-04-03T18:34:32.582Z,1.80
2023-04-03T18:37:00.263Z,1.80
2023-04-03T18:39:27.249Z,1.80
2023-04-03T18:41:55.057Z,1.80
2023-04-03T18:44:25.477Z,1.90
2023-04-03T18:46:53.952Z,1.90
2023-04-03T18:49:21.561Z,1.80
2023-04-03T18:51:48.630Z,1.80
2023-04-03T18:54:16.485Z,1.90
2023-04-03T18:56:43.587Z,1.90
2023-04-03T18:59:10.748Z,1.90
2023-04-03T19:01:37.814Z,1.90
2023-04-03T19:04:05.126Z,1.90
2023-04-03T19:06:37.264Z,1.90
2023-04-03T19:09:06.720Z,1.90
2023-04-03T19:11:34.980Z,1.90
2023-04-03T19:14:14.598Z,1.90
2023-04-03T19:16:43.706Z,1.90
2023-04-03T19:19:10.809Z,1.90
2023-04-03T19:21:41.444Z,1.90
2023-04-03T19:24:10.620Z,1.90
2023-04-03T19:26:37.701Z,1.90
2023-04-03T19:29:04.855Z,1.90
2023-04-03T19:31:33.948Z,1.80
2023-04-03T19:34:02.703Z,1.80
2023-04-03T19:36:30.586Z,1.80
2023-04-03T19:38:58.263Z,1.80
2023-04-03T19:41:28.636Z,1.70
2023-04-03T19:43:56.494Z,1.70
2023-04-03T19:46:29.093Z,1.80
2023-04-03T19:48:56.729Z,1.80
2023-04-03T19:51:23.758Z,1.80
2023-04-03T19:53:51.079Z,1.80
2023-04-03T19:56:18.502Z,1.80
2023-04-03T19:58:45.878Z,1.80
2023-04-03T20:01:13.066Z,1.80
2023-04-03T20:03:40.329Z,1.70
2023-04-03T20:06:07.303Z,1.70
2023-04-03T20:08:37.195Z,1.70
2023-04-03T20:11:04.165Z,1.70
2023-04-03T20:13:31.191Z,1.70
2023-04-03T20:16:01.789Z,1.80
2023-04-03T20:18:28.870Z,1.70
2023-04-03T20:20:58.660Z,1.70
2023-04-03T20:23:27.335Z,1.80
2023-04-03T20:26:08.658Z,1.80
2023-04-03T20:28:38.306Z,1.80
2023-04-03T20:31:06.800Z,1.80
2023-04-03T20:33:34.054Z,1.80
2023-04-03T20:36:02.198Z,1.80
2023-04-03T20:38:29.177Z,1.80
2023-04-03T20:40:56.174Z,1.80
2023-04-03T20:43:23.864Z,1.70
2023-04-03T20:45:51.257Z,1.80
2023-04-03T20:48:19.284Z,1.80
2023-04-03T20:50:46.908Z,1.70
2023-04-03T20:53:15.249Z,1.80
2023-04-03T20:55:42.583Z,1.80
2023-04-03T20:58:09.997Z,1.80
2023-04-03T21:00:38.114Z,1.70
2023-04-03T21:03:06.170Z,1.70
2023-04-03T21:05:37.548Z,1.60
2023-04-03T21:08:42.535Z,1.50
2023-04-03T21:11:47.444Z,1.50
2023-04-03T21:14:52.231Z,1.50
2023-04-03T21:17:19.259Z,1.50
2023-04-03T21:19:46.672Z,1.50
2023-04-03T21:22:16.324Z,1.50
2023-04-03T21:24:44.482Z,1.50
2023-04-03T21:27:11.704Z,1.40
2023-04-03T21:29:38.996Z,1.40
2023-04-03T21:32:06.380Z,1.40
2023-04-03T21:34:33.756Z,1.40
2023-04-03T21:37:04.911Z,1.30
2023-04-03T21:39:32.345Z,1.30
2023-04-03T21:41:59.489Z,1.30
2023-04-03T21:44:29.473Z,1.30
2023-04-03T21:46:56.763Z,1.30
2023-04-03T21:49:25.001Z,1.30
2023-04-03T21:51:52.736Z,1.30
2023-04-03T21:54:20.568Z,1.20
2023-04-03T21:56:51.751Z,1.20
2023-04-03T21:59:19.082Z,1.20
2023-04-03T22:01:46.189Z,1.20
2023-04-03T22:04:13.247Z,1.20
2023-04-03T22:06:40.200Z,1.30
2023-04-03T22:09:07.364Z,1.30
2023-04-03T22:11:34.298Z,1.30
2023-04-03T22:14:01.337Z,1.40
2023-04-03T22:16:28.398Z,1.40
2023-04-03T22:18:59.162Z,1.40
2023-04-03T22:21:27.271Z,1.40
2023-04-03T22:23:54.770Z,1.40
2023-04-03T22:26:21.937Z,1.50
2023-04-03T22:28:48.970Z,1.50
2023-04-03T22:31:17.068Z,1.40
2023-04-03T22:33:45.203Z,1.40
2023-04-03T22:36:13.587Z,1.40
2023-04-03T22:38:44.377Z,1.40
2023-04-03T22:41:11.975Z,1.40
2023-04-03T22:43:39.297Z,1.40
2023-04-03T22:46:08.806Z,1.40
2023-04-03T22:48:42.445Z,1.40
2023-04-03T22:51:09.611Z,1.40
2023-04-03T22:53:37.077Z,1.40
2023-04-03T22:56:08.670Z,1.40
2023-04-03T22:58:35.731Z,1.40
2023-04-03T23:01:12.295Z,1.40
2023-04-03T23:03:41.388Z,1.30
2023-04-03T23:06:09.605Z,1.40
2023-04-03T23:08:40.940Z,1.30
2023-04-03T23:11:09.583Z,1.30
2023-04-03T23:13:37.249Z,1.30
2023-04-03T23:16:05.111Z,1.30
2023-04-03T23:18:33.176Z,1.30
2023-04-03T23:21:01.401Z,1.30
2023-04-03T23:23:28.650Z,1.20
2023-04-03T23:26:04.765Z,1.30
2023-04-03T23:28:31.691Z,1.30
2023-04-03T23:31:00.570Z,1.30
2023-04-03T23:33:28.127Z,1.30
2023-04-03T23:35:55.102Z,1.30
2023-04-03T23:38:22.152Z,1.30
2023-04-03T23:40:49.149Z,1.30
2023-04-03T23:43:16.309Z,1.30
2023-04-03T23:45:45.818Z,1.30
2023-04-03T23:48:12.796Z,1.30
2023-04-03T23:50:40.010Z,1.30
2023-04-03T23:53:07.405Z,1.30
2023-04-03T23:55:34.526Z,1.20
2023-04-03T23:58:01.713Z,1.30
